createdAt,value
2019-03-30T00:01:17.515Z,4.25
2019-03-30T00:03:48.233Z,4.18
2019-03-30T00:06:19.621Z,4.22
2019-03-30T00:08:50.547Z,4.20
2019-03-30T00:11:21.681Z,4.11
2019-03-30T00:13:52.123Z,4.02
2019-03-30T00:16:22.747Z,4.08
2019-03-30T00:18:53.895Z,4.02
2019-03-30T00:21:24.824Z,3.96
2019-03-30T00:23:55.626Z,3.91
2019-03-30T00:26:27.464Z,3.79
2019-03-30T00:28:58.274Z,3.74
2019-03-30T00:31:29.208Z,3.72
2019-03-30T00:34:00.083Z,3.63
2019-03-30T00:36:31.065Z,3.57
2019-03-30T00:39:05.429Z,3.54
2019-03-30T00:41:36.913Z,3.56
2019-03-30T00:44:09.615Z,3.48
2019-03-30T00:46:40.482Z,3.37
2019-03-30T00:49:12.778Z,3.31
2019-03-30T00:51:43.811Z,3.25
2019-03-30T00:54:14.552Z,3.35
2019-03-30T00:56:45.978Z,3.31
2019-03-30T00:59:17.198Z,3.24
2019-03-30T01:01:47.917Z,3.20
2019-03-30T01:04:18.588Z,3.15
2019-03-30T01:06:50.927Z,3.12
2019-03-30T01:09:21.671Z,3.05
2019-03-30T01:11:52.513Z,3.01
2019-03-30T01:14:23.106Z,3.02
2019-03-30T01:16:54.492Z,2.96
2019-03-30T01:19:25.777Z,2.93
2019-03-30T01:21:58.587Z,2.86
2019-03-30T01:24:29.993Z,2.82
2019-03-30T01:27:00.930Z,2.83
2019-03-30T01:29:31.870Z,2.84
2019-03-30T01:32:03.221Z,2.77
2019-03-30T01:34:34.517Z,2.76
2019-03-30T01:37:06.411Z,2.63
2019-03-30T01:39:37.775Z,2.55
2019-03-30T01:42:08.970Z,2.44
2019-03-30T01:44:41.334Z,2.52
2019-03-30T01:47:12.369Z,2.51
2019-03-30T01:49:42.820Z,2.47
2019-03-30T01:52:14.221Z,2.38
2019-03-30T01:54:45.336Z,2.33
2019-03-30T01:57:16.888Z,2.31
2019-03-30T02:00:09.965Z,2.23
2019-03-30T02:02:41.655Z,2.08
2019-03-30T02:05:16.081Z,2.04
2019-03-30T02:07:48.583Z,1.99
2019-03-30T02:10:43.222Z,1.97
2019-03-30T02:13:14.417Z,1.94
2019-03-30T02:15:46.797Z,2.00
2019-03-30T02:18:19.128Z,2.03
2019-03-30T02:20:49.996Z,2.05
2019-03-30T02:23:22.014Z,2.03
2019-03-30T02:25:52.605Z,1.99
2019-03-30T02:28:24.257Z,1.94
2019-03-30T02:30:55.029Z,1.89
2019-03-30T02:33:25.567Z,1.87
2019-03-30T02:35:57.144Z,2.00
2019-03-30T02:38:27.983Z,1.98
2019-03-30T02:40:58.675Z,1.92
2019-03-30T02:43:29.531Z,1.97
2019-03-30T02:46:01.248Z,2.02
2019-03-30T02:48:31.668Z,2.07
2019-03-30T02:51:02.402Z,2.22
2019-03-30T02:53:33.010Z,2.25
2019-03-30T02:56:04.060Z,2.22
2019-03-30T02:58:34.708Z,2.19
2019-03-30T03:01:05.397Z,1.97
2019-03-30T03:03:35.987Z,1.78
2019-03-30T03:06:06.673Z,1.72
2019-03-30T03:08:37.723Z,1.68
2019-03-30T03:11:08.177Z,1.76
2019-03-30T03:13:38.758Z,1.66
2019-03-30T03:16:09.465Z,1.57
2019-03-30T03:18:39.928Z,1.52
2019-03-30T03:21:10.552Z,1.45
2019-03-30T03:23:43.036Z,1.40
2019-03-30T03:26:13.739Z,1.36
2019-03-30T03:28:44.601Z,1.29
2019-03-30T03:31:15.060Z,1.28
2019-03-30T03:33:46.381Z,1.32
2019-03-30T03:36:20.090Z,1.16
2019-03-30T03:38:50.863Z,1.02
2019-03-30T03:41:21.954Z,1.06
2019-03-30T03:43:52.521Z,1.05
2019-03-30T03:46:23.121Z,0.98
2019-03-30T03:48:53.603Z,0.96
2019-03-30T03:51:26.141Z,0.93
2019-03-30T03:53:56.799Z,0.89
2019-03-30T03:56:27.273Z,0.89
2019-03-30T03:58:58.511Z,0.91
2019-03-30T04:01:28.922Z,0.94
2019-03-30T04:03:59.726Z,0.91
2019-03-30T04:06:31.995Z,0.85
2019-03-30T04:09:04.609Z,0.82
2019-03-30T04:11:35.585Z,0.78
2019-03-30T04:14:06.237Z,0.78
2019-03-30T04:16:36.938Z,0.77
2019-03-30T04:19:07.582Z,0.80
2019-03-30T04:21:44.208Z,0.83
2019-03-30T04:24:10.535Z,0.84
2019-03-30T04:26:41.883Z,0.83
2019-03-30T04:29:12.404Z,0.79
2019-03-30T04:31:43.062Z,0.78
2019-03-30T04:34:13.851Z,0.78
2019-03-30T04:36:44.493Z,0.78
2019-03-30T04:39:15.021Z,0.74
2019-03-30T04:41:45.851Z,0.77
2019-03-30T04:44:16.280Z,0.85
2019-03-30T04:46:46.901Z,0.89
2019-03-30T04:49:17.653Z,0.83
2019-03-30T04:51:57.440Z,0.84
2019-03-30T04:54:21.986Z,0.73
2019-03-30T04:56:52.492Z,0.77
2019-03-30T04:59:23.094Z,0.83
2019-03-30T05:01:53.842Z,0.87
2019-03-30T05:04:25.333Z,0.96
2019-03-30T05:06:56.061Z,1.11
2019-03-30T05:09:26.651Z,1.21
2019-03-30T05:11:57.344Z,1.33
2019-03-30T05:14:27.890Z,1.44
2019-03-30T05:16:58.952Z,1.43
2019-03-30T05:19:30.102Z,1.43
2019-03-30T05:22:11.567Z,1.46
2019-03-30T05:24:32.999Z,1.49
2019-03-30T05:27:04.533Z,1.60
2019-03-30T05:29:35.024Z,1.75
2019-03-30T05:32:05.659Z,1.82
2019-03-30T05:34:36.518Z,1.93
2019-03-30T05:37:07.039Z,2.10
2019-03-30T05:39:37.877Z,2.21
2019-03-30T05:42:08.352Z,2.35
2019-03-30T05:44:38.880Z,2.54
2019-03-30T05:47:09.271Z,2.73
2019-03-30T05:49:40.315Z,2.80
2019-03-30T05:52:25.531Z,2.81
2019-03-30T05:54:43.609Z,2.84
2019-03-30T05:57:15.030Z,2.80
2019-03-30T05:59:45.831Z,2.92
2019-03-30T06:02:16.644Z,2.99
2019-03-30T06:04:47.664Z,3.19
2019-03-30T06:07:18.298Z,3.39
2019-03-30T06:09:49.353Z,3.61
2019-03-30T06:12:20.220Z,3.78
2019-03-30T06:14:50.934Z,3.89
2019-03-30T06:17:22.025Z,4.02
2019-03-30T06:19:52.613Z,4.00
2019-03-30T06:22:23.060Z,4.05
2019-03-30T06:24:53.591Z,4.09
2019-03-30T06:27:24.997Z,4.23
2019-03-30T06:30:17.618Z,4.38
2019-03-30T06:32:48.019Z,4.56
2019-03-30T06:35:18.651Z,4.83
2019-03-30T06:37:49.181Z,5.03
2019-03-30T06:40:20.484Z,5.16
2019-03-30T06:42:51.279Z,5.32
2019-03-30T06:45:21.933Z,5.43
2019-03-30T06:47:52.724Z,5.61
2019-03-30T06:50:24.752Z,5.80
2019-03-30T06:52:58.667Z,5.86
2019-03-30T06:55:28.155Z,5.97
2019-03-30T06:57:58.798Z,6.09
2019-03-30T07:00:32.926Z,6.42
2019-03-30T07:03:04.883Z,6.63
2019-03-30T07:05:41.531Z,7.05
2019-03-30T07:08:13.917Z,7.96
2019-03-30T07:10:45.922Z,11.04
2019-03-30T07:13:16.694Z,13.07
2019-03-30T07:15:50.154Z,14.26
2019-03-30T07:18:22.371Z,15.61
2019-03-30T07:20:53.373Z,14.93
2019-03-30T07:23:24.128Z,16.09
2019-03-30T07:25:55.178Z,16.42
2019-03-30T07:28:27.973Z,16.89
2019-03-30T07:30:58.601Z,17.75
2019-03-30T07:33:29.553Z,18.33
2019-03-30T07:36:00.410Z,18.45
2019-03-30T07:38:31.219Z,18.45
2019-03-30T07:41:02.270Z,18.91
2019-03-30T07:43:32.765Z,19.09
2019-03-30T07:46:03.486Z,19.88
2019-03-30T07:48:34.677Z,19.94
2019-03-30T07:51:05.183Z,20.15
2019-03-30T07:53:44.315Z,20.07
2019-03-30T07:56:09.769Z,20.24
2019-03-30T07:58:40.360Z,20.34
2019-03-30T08:01:11.069Z,19.91
2019-03-30T08:03:41.777Z,19.58
2019-03-30T08:06:13.286Z,20.36
2019-03-30T08:08:44.187Z,21.26
2019-03-30T08:11:14.980Z,20.22
2019-03-30T08:13:45.682Z,20.53
2019-03-30T08:16:16.368Z,20.31
2019-03-30T08:18:47.188Z,20.21
2019-03-30T08:21:17.952Z,20.45
2019-03-30T08:23:50.364Z,21.07
2019-03-30T08:26:21.520Z,20.87
2019-03-30T08:28:53.737Z,21.71
2019-03-30T08:31:25.097Z,20.92
2019-03-30T08:33:56.165Z,21.10
2019-03-30T08:36:29.727Z,21.43
2019-03-30T08:39:00.274Z,20.52
2019-03-30T08:41:31.204Z,20.97
2019-03-30T08:44:02.439Z,22.42
2019-03-30T08:46:33.482Z,23.52
2019-03-30T08:49:04.626Z,23.67
2019-03-30T08:51:35.458Z,22.80
2019-03-30T08:54:06.013Z,22.93
2019-03-30T08:56:36.658Z,23.12
2019-03-30T08:59:07.239Z,22.38
2019-03-30T09:01:38.068Z,21.77
2019-03-30T09:04:08.622Z,22.60
2019-03-30T09:06:39.380Z,23.13
2019-03-30T09:09:10.128Z,22.95
2019-03-30T09:11:43.451Z,22.62
2019-03-30T09:14:13.593Z,22.47
2019-03-30T09:16:44.475Z,22.70
2019-03-30T09:19:16.978Z,22.89
2019-03-30T09:21:47.910Z,23.67
2019-03-30T09:24:18.585Z,22.44
2019-03-30T09:26:49.213Z,23.70
2019-03-30T09:29:20.644Z,24.86
2019-03-30T09:31:52.072Z,24.21
2019-03-30T09:34:22.556Z,24.11
2019-03-30T09:36:55.073Z,23.65
2019-03-30T09:39:26.690Z,24.56
2019-03-30T09:41:58.344Z,23.04
2019-03-30T09:44:29.518Z,22.05
2019-03-30T09:47:00.100Z,22.55
2019-03-30T09:49:31.248Z,23.29
2019-03-30T09:52:02.463Z,22.80
2019-03-30T09:54:33.338Z,23.20
2019-03-30T09:57:04.047Z,23.82
2019-03-30T09:59:35.109Z,22.14
2019-03-30T10:02:05.780Z,23.00
2019-03-30T10:04:37.135Z,23.75
2019-03-30T10:07:07.752Z,23.84
2019-03-30T10:09:39.052Z,23.86
2019-03-30T10:12:10.875Z,22.90
2019-03-30T10:14:42.066Z,23.46
2019-03-30T10:17:15.217Z,22.84
2019-03-30T10:20:03.685Z,22.33
2019-03-30T10:22:23.706Z,21.06
2019-03-30T10:24:58.377Z,21.39
2019-03-30T10:27:28.356Z,22.41
2019-03-30T10:29:59.931Z,22.03
2019-03-30T10:32:31.764Z,22.71
2019-03-30T10:35:02.919Z,21.86
2019-03-30T10:37:34.720Z,22.29
2019-03-30T10:40:07.616Z,22.68
2019-03-30T10:42:38.202Z,23.01
2019-03-30T10:45:09.077Z,23.14
2019-03-30T10:47:39.872Z,23.05
2019-03-30T10:50:11.016Z,23.09
2019-03-30T10:52:42.101Z,22.70
2019-03-30T10:55:12.732Z,23.11
2019-03-30T10:57:43.579Z,22.88
2019-03-30T11:00:17.357Z,23.15
2019-03-30T11:02:52.694Z,22.85
2019-03-30T11:05:23.877Z,22.82
2019-03-30T11:07:54.521Z,23.82
2019-03-30T11:10:25.007Z,24.01
2019-03-30T11:12:56.841Z,24.06
2019-03-30T11:15:27.510Z,23.68
2019-03-30T11:17:57.988Z,23.35
2019-03-30T11:20:28.707Z,23.31
2019-03-30T11:22:59.503Z,23.36
2019-03-30T11:25:30.245Z,23.23
2019-03-30T11:28:00.753Z,22.36
2019-03-30T11:30:32.252Z,22.63
2019-03-30T11:33:03.882Z,21.73
2019-03-30T11:35:34.722Z,21.54
2019-03-30T11:38:05.543Z,20.79
2019-03-30T11:40:36.970Z,21.12
2019-03-30T11:43:07.748Z,21.62
2019-03-30T11:45:38.326Z,21.75
2019-03-30T11:51:00.565Z,21.48
2019-03-30T11:53:32.298Z,21.29
2019-03-30T11:56:07.223Z,21.50
2019-03-30T11:58:38.414Z,21.53
2019-03-30T12:01:09.152Z,20.34
2019-03-30T12:03:41.479Z,20.55
2019-03-30T12:06:12.388Z,20.57
2019-03-30T12:08:44.424Z,20.70
2019-03-30T12:11:15.114Z,19.84
2019-03-30T12:13:45.808Z,19.77
2019-03-30T12:16:16.477Z,19.84
2019-03-30T12:18:47.039Z,19.16
2019-03-30T12:21:19.260Z,19.37
2019-03-30T12:23:49.778Z,19.44
2019-03-30T12:26:20.551Z,19.78
2019-03-30T12:28:51.233Z,19.93
2019-03-30T12:31:23.707Z,19.92
2019-03-30T12:33:54.447Z,19.21
2019-03-30T12:36:25.035Z,19.76
2019-03-30T12:38:56.854Z,19.47
2019-03-30T12:41:27.576Z,19.09
2019-03-30T12:43:58.434Z,19.15
2019-03-30T12:46:32.734Z,19.80
2019-03-30T12:49:03.529Z,20.32
2019-03-30T12:51:34.439Z,20.38
2019-03-30T12:54:05.160Z,20.65
2019-03-30T12:56:35.668Z,20.05
2019-03-30T12:59:06.369Z,20.24
2019-03-30T13:01:37.074Z,20.51
2019-03-30T13:04:07.865Z,20.06
2019-03-30T13:06:38.832Z,19.89
2019-03-30T13:09:09.648Z,20.18
2019-03-30T13:11:42.077Z,20.09
2019-03-30T13:14:12.736Z,19.76
2019-03-30T13:16:43.339Z,19.74
2019-03-30T13:19:13.795Z,20.06
2019-03-30T13:21:52.608Z,19.73
2019-03-30T13:24:17.946Z,20.01
2019-03-30T13:26:51.568Z,20.54
2019-03-30T13:29:22.342Z,20.77
2019-03-30T13:31:52.744Z,20.89
2019-03-30T13:34:23.361Z,20.58
2019-03-30T13:36:53.832Z,20.77
2019-03-30T13:39:24.455Z,20.61
2019-03-30T13:41:55.446Z,19.61
2019-03-30T13:44:26.100Z,19.72
2019-03-30T13:46:56.584Z,20.01
2019-03-30T13:49:29.663Z,20.45
2019-03-30T13:51:59.272Z,20.92
2019-03-30T13:54:29.781Z,20.81
2019-03-30T13:57:00.809Z,20.93
2019-03-30T13:59:33.726Z,20.53
2019-03-30T14:02:05.971Z,20.47
2019-03-30T14:04:37.135Z,20.38
2019-03-30T14:07:07.759Z,20.93
2019-03-30T14:09:38.576Z,20.92
2019-03-30T14:12:10.659Z,20.47
2019-03-30T14:14:41.203Z,20.59
2019-03-30T14:17:11.855Z,20.53
2019-03-30T14:19:42.441Z,20.64
2019-03-30T14:22:12.903Z,20.26
2019-03-30T14:24:43.581Z,19.99
2019-03-30T14:27:14.928Z,19.57
2019-03-30T14:29:45.690Z,19.48
2019-03-30T14:32:17.161Z,19.72
2019-03-30T14:34:47.575Z,19.18
2019-03-30T14:37:18.344Z,19.38
2019-03-30T14:39:49.512Z,19.80
2019-03-30T14:42:20.263Z,19.92
2019-03-30T14:44:51.637Z,20.05
2019-03-30T14:47:22.127Z,20.28
2019-03-30T14:49:54.547Z,20.02
2019-03-30T14:52:25.158Z,19.95
2019-03-30T14:54:55.945Z,19.58
2019-03-30T14:57:26.464Z,19.81
2019-03-30T14:59:57.172Z,19.60
2019-03-30T15:02:27.741Z,19.66
2019-03-30T15:05:00.969Z,19.26
2019-03-30T15:07:31.062Z,19.17
2019-03-30T15:10:01.753Z,19.02
2019-03-30T15:12:32.467Z,18.84
2019-03-30T15:15:03.186Z,18.67
2019-03-30T15:17:34.189Z,18.73
2019-03-30T15:20:10.375Z,19.03
2019-03-30T15:22:41.924Z,18.88
2019-03-30T15:25:12.703Z,18.85
2019-03-30T15:27:43.188Z,18.58
2019-03-30T15:30:16.142Z,18.80
2019-03-30T15:32:49.607Z,19.00
2019-03-30T15:35:21.392Z,18.70
2019-03-30T15:37:52.495Z,18.83
2019-03-30T15:40:23.518Z,18.23
2019-03-30T15:42:54.601Z,17.94
2019-03-30T15:45:27.128Z,18.17
2019-03-30T15:47:57.658Z,18.17
2019-03-30T15:50:28.474Z,18.10
2019-03-30T15:52:59.906Z,17.97
2019-03-30T15:55:31.314Z,17.90
2019-03-30T15:58:02.132Z,17.96
2019-03-30T16:00:32.839Z,18.09
2019-03-30T16:03:03.946Z,18.06
2019-03-30T16:05:34.611Z,17.85
2019-03-30T16:08:05.161Z,17.81
2019-03-30T16:10:35.707Z,17.62
2019-03-30T16:13:06.343Z,17.46
2019-03-30T16:15:37.581Z,17.35
2019-03-30T16:18:08.454Z,17.37
2019-03-30T16:20:38.904Z,17.21
2019-03-30T16:23:09.611Z,17.08
2019-03-30T16:25:40.599Z,16.95
2019-03-30T16:28:11.132Z,16.96
2019-03-30T16:30:41.712Z,16.87
2019-03-30T16:33:15.111Z,16.69
2019-03-30T16:35:46.338Z,16.63
2019-03-30T16:38:17.172Z,16.60
2019-03-30T16:40:47.777Z,16.55
2019-03-30T16:43:18.629Z,16.61
2019-03-30T16:45:49.952Z,16.48
2019-03-30T16:48:20.848Z,16.38
2019-03-30T16:50:51.570Z,16.22
2019-03-30T16:53:22.474Z,16.15
2019-03-30T16:55:53.061Z,15.84
2019-03-30T17:00:59.506Z,16.04
2019-03-30T17:03:30.281Z,15.99
2019-03-30T17:06:00.877Z,15.90
2019-03-30T17:08:33.135Z,15.77
2019-03-30T17:11:03.886Z,15.69
2019-03-30T17:13:35.011Z,15.48
2019-03-30T17:16:05.754Z,15.32
2019-03-30T17:18:36.238Z,15.24
2019-03-30T17:21:06.845Z,15.13
2019-03-30T17:23:37.397Z,14.99
2019-03-30T17:26:07.900Z,14.82
2019-03-30T17:28:38.817Z,14.51
2019-03-30T17:31:09.820Z,14.22
2019-03-30T17:33:41.289Z,13.91
2019-03-30T17:36:13.430Z,13.60
2019-03-30T17:38:43.984Z,13.21
2019-03-30T17:41:14.630Z,12.91
2019-03-30T17:43:45.307Z,12.78
2019-03-30T17:46:17.211Z,12.69
2019-03-30T17:48:47.920Z,12.64
2019-03-30T17:51:19.030Z,12.54
2019-03-30T17:53:51.402Z,12.39
2019-03-30T17:56:22.052Z,12.31
2019-03-30T17:58:52.570Z,12.17
2019-03-30T18:01:23.261Z,12.07
2019-03-30T18:03:53.879Z,11.94
2019-03-30T18:06:24.631Z,11.83
2019-03-30T18:08:56.024Z,11.65
2019-03-30T18:11:26.813Z,11.60
2019-03-30T18:13:57.974Z,11.39
2019-03-30T18:16:29.107Z,11.24
2019-03-30T18:19:00.064Z,11.13
2019-03-30T18:21:30.972Z,11.03
2019-03-30T18:24:03.048Z,10.93
2019-03-30T18:26:36.382Z,10.71
2019-03-30T18:29:07.049Z,10.54
2019-03-30T18:31:37.817Z,10.40
2019-03-30T18:34:11.306Z,10.20
2019-03-30T18:36:41.734Z,10.12
2019-03-30T18:39:12.604Z,10.02
2019-03-30T18:41:43.382Z,9.95
2019-03-30T18:44:14.147Z,9.90
2019-03-30T18:46:45.095Z,9.88
2019-03-30T18:49:15.882Z,9.87
2019-03-30T18:51:46.450Z,9.83
2019-03-30T18:54:17.359Z,9.75
2019-03-30T18:56:48.184Z,9.70
2019-03-30T18:59:19.104Z,9.63
2019-03-30T19:01:49.624Z,9.52
2019-03-30T19:04:20.826Z,9.47
2019-03-30T19:06:51.980Z,9.34
2019-03-30T19:09:22.929Z,9.26
2019-03-30T19:11:53.687Z,9.23
2019-03-30T19:14:24.586Z,9.12
2019-03-30T19:16:55.100Z,9.04
2019-03-30T19:19:26.604Z,8.94
2019-03-30T19:21:57.228Z,8.94
2019-03-30T19:24:27.793Z,9.06
2019-03-30T19:26:58.757Z,8.93
2019-03-30T19:29:31.406Z,9.03
2019-03-30T19:32:02.628Z,8.85
2019-03-30T19:34:33.747Z,8.71
2019-03-30T19:37:04.888Z,8.68
2019-03-30T19:39:35.519Z,8.69
2019-03-30T19:42:06.170Z,8.60
2019-03-30T19:44:37.252Z,8.48
2019-03-30T19:47:08.145Z,8.39
2019-03-30T19:49:39.085Z,8.31
2019-03-30T19:52:10.301Z,8.18
2019-03-30T19:54:41.574Z,8.17
2019-03-30T19:57:12.556Z,8.09
2019-03-30T19:59:43.185Z,8.02
2019-03-30T20:02:15.244Z,8.03
2019-03-30T20:04:45.940Z,7.92
2019-03-30T20:07:18.423Z,8.05
2019-03-30T20:09:49.411Z,7.89
2019-03-30T20:12:20.236Z,7.75
2019-03-30T20:14:51.231Z,7.69
2019-03-30T20:17:21.914Z,7.67
2019-03-30T20:19:54.064Z,7.67
2019-03-30T20:22:24.897Z,7.69
2019-03-30T20:24:56.801Z,7.67
2019-03-30T20:27:28.030Z,7.49
2019-03-30T20:30:00.630Z,7.16
2019-03-30T20:32:31.277Z,6.94
2019-03-30T20:35:03.001Z,6.81
2019-03-30T20:37:33.569Z,6.79
2019-03-30T20:40:07.296Z,6.74
2019-03-30T20:42:38.521Z,6.57
2019-03-30T20:45:10.501Z,6.48
2019-03-30T20:47:41.262Z,6.52
2019-03-30T20:50:12.220Z,6.34
2019-03-30T20:52:43.734Z,6.09
2019-03-30T20:55:14.470Z,6.10
2019-03-30T20:57:46.007Z,6.07
2019-03-30T21:00:17.438Z,6.02
2019-03-30T21:02:48.204Z,6.02
2019-03-30T21:05:20.283Z,6.10
2019-03-30T21:07:51.114Z,6.07
2019-03-30T21:10:21.780Z,6.05
2019-03-30T21:12:52.729Z,6.00
2019-03-30T21:15:23.468Z,6.02
2019-03-30T21:17:55.006Z,5.97
2019-03-30T21:20:25.502Z,5.96
2019-03-30T21:22:56.980Z,5.90
2019-03-30T21:25:27.823Z,5.85
2019-03-30T21:27:58.660Z,5.78
2019-03-30T21:30:29.569Z,5.73
2019-03-30T21:33:00.186Z,5.72
2019-03-30T21:35:31.714Z,5.68
2019-03-30T21:38:02.083Z,5.58
2019-03-30T21:40:32.575Z,5.67
2019-03-30T21:43:03.130Z,5.60
2019-03-30T21:45:33.923Z,5.56
2019-03-30T21:48:04.468Z,5.60
2019-03-30T21:50:35.308Z,5.52
2019-03-30T21:53:06.000Z,5.47
2019-03-30T21:55:37.064Z,5.46
2019-03-30T21:58:08.572Z,5.45
2019-03-30T22:03:15.856Z,5.28
2019-03-30T22:05:46.359Z,5.33
2019-03-30T22:08:17.410Z,5.23
2019-03-30T22:10:48.425Z,5.27
2019-03-30T22:13:21.528Z,5.28
2019-03-30T22:15:52.784Z,5.25
2019-03-30T22:18:25.652Z,5.35
2019-03-30T22:20:56.221Z,5.25
2019-03-30T22:23:26.817Z,5.28
2019-03-30T22:25:57.469Z,5.31
2019-03-30T22:28:29.583Z,5.21
2019-03-30T22:31:00.836Z,5.09
2019-03-30T22:33:31.916Z,4.94
2019-03-30T22:36:03.384Z,4.89
2019-03-30T22:38:33.863Z,4.82
2019-03-30T22:41:05.652Z,4.79
2019-03-30T22:43:36.494Z,4.73
2019-03-30T22:46:07.720Z,4.65
2019-03-30T22:48:38.659Z,4.63
2019-03-30T22:51:09.266Z,4.60
2019-03-30T22:53:39.998Z,4.61
2019-03-30T22:56:11.385Z,4.60
2019-03-30T22:58:41.893Z,4.59
2019-03-30T23:01:14.026Z,4.54
2019-03-30T23:03:46.069Z,4.56
2019-03-30T23:06:16.634Z,4.54
2019-03-30T23:08:47.208Z,4.45
2019-03-30T23:11:17.966Z,4.40
2019-03-30T23:13:48.525Z,4.39
2019-03-30T23:16:19.055Z,4.33
2019-03-30T23:18:49.425Z,4.27
2019-03-30T23:21:19.802Z,4.24
2019-03-30T23:23:50.336Z,4.26
2019-03-30T23:26:20.788Z,4.26
2019-03-30T23:28:51.759Z,4.22
2019-03-30T23:31:22.588Z,4.23
2019-03-30T23:33:53.159Z,4.21
2019-03-30T23:36:24.497Z,4.21
2019-03-30T23:38:55.011Z,4.12
2019-03-30T23:41:25.718Z,4.10
2019-03-30T23:43:56.387Z,4.07
2019-03-30T23:46:26.851Z,4.07
2019-03-30T23:48:57.330Z,3.94
2019-03-30T23:51:28.952Z,3.90
2019-03-30T23:53:59.567Z,3.90
2019-03-30T23:56:30.412Z,3.80
2019-03-30T23:59:01.314Z,3.78
